Time;durP1;ratioP1;P1;durP2;ratioP2;P2;SDS_P1;SDS_P2;PMS_P1;PMS_P2;Temp;Humidity;BMP_temperature;BMP_pressure;BME280_temperature;BME280_humidity;BME280_pressure;Samples;Min_cycle;Max_cycle;Signal;HPM_P1;HPM_P2
2023/04/11 00:02:14;;;;;;;2.73;1.37;;;13.90;99.90;;;;;;5033057;28;20182;-44
2023/04/11 00:04:40;;;;;;;2.13;1.60;;;13.90;99.90;;;;;;5033883;28;20203;-44
2023/04/11 00:07:06;;;;;;;3.17;1.50;;;13.90;99.90;;;;;;5032353;28;20189;-43
2023/04/11 00:09:33;;;;;;;1.23;1.13;;;14.00;99.90;;;;;;5033263;28;20182;-43
2023/04/11 00:12:00;;;;;;;3.47;1.50;;;14.00;99.90;;;;;;5031708;28;20206;-43
2023/04/11 00:14:27;;;;;;;2.57;1.70;;;14.00;99.90;;;;;;5030939;28;20203;-44
2023/04/11 00:16:54;;;;;;;2.33;1.30;;;14.00;99.90;;;;;;5032143;28;20267;-44
2023/04/11 00:19:24;;;;;;;3.10;1.23;;;14.00;99.90;;;;;;5033422;28;20662;-41
2023/04/11 00:21:50;;;;;;;2.70;1.30;;;14.00;99.90;;;;;;5031395;28;20277;-41
2023/04/11 00:24:17;;;;;;;4.40;1.43;;;14.00;99.90;;;;;;5031716;28;20210;-41
2023/04/11 00:26:43;;;;;;;4.20;1.43;;;14.00;99.90;;;;;;5033270;28;20183;-41
2023/04/11 00:29:08;;;;;;;4.10;1.57;;;14.00;99.90;;;;;;5031798;28;20182;-41
2023/04/11 00:31:34;;;;;;;3.30;1.60;;;14.00;99.90;;;;;;5031590;28;20259;-42
2023/04/11 00:34:00;;;;;;;1.90;1.30;;;14.00;99.90;;;;;;5015205;28;20202;-42
2023/04/11 00:36:26;;;;;;;3.97;1.60;;;14.00;99.90;;;;;;5031832;28;20182;-42
2023/04/11 00:38:53;;;;;;;2.17;1.40;;;13.90;99.90;;;;;;5044140;28;20175;-41
2023/04/11 00:41:19;;;;;;;2.00;1.30;;;13.90;99.90;;;;;;5027502;28;20186;-41
2023/04/11 00:43:46;;;;;;;3.53;1.47;;;13.90;99.90;;;;;;5031290;28;20182;-42
2023/04/11 00:46:13;;;;;;;2.70;1.30;;;13.90;99.90;;;;;;5033273;28;20197;-42
2023/04/11 00:48:40;;;;;;;3.87;1.53;;;13.90;99.90;;;;;;5032016;28;20185;-41
2023/04/11 00:51:06;;;;;;;2.80;1.50;;;13.90;99.90;;;;;;5013331;28;20269;-41
2023/04/11 00:53:33;;;;;;;1.93;1.30;;;13.90;99.90;;;;;;5030579;28;20179;-42
2023/04/11 00:55:59;;;;;;;2.47;1.60;;;13.90;99.90;;;;;;5031252;28;20185;-41
2023/04/11 00:58:26;;;;;;;2.33;1.50;;;13.90;99.90;;;;;;5031211;28;20175;-42
2023/04/11 01:00:52;;;;;;;2.43;1.40;;;13.90;99.90;;;;;;5031530;28;20221;-41
2023/04/11 01:03:18;;;;;;;2.73;1.50;;;13.90;99.90;;;;;;5030982;28;20187;-41
2023/04/11 01:05:45;;;;;;;3.30;2.30;;;13.90;99.90;;;;;;5031125;28;20619;-42
2023/04/11 01:08:12;;;;;;;1.97;1.53;;;13.90;99.90;;;;;;5031055;28;20183;-42
2023/04/11 01:10:40;;;;;;;2.07;1.87;;;13.90;99.90;;;;;;5022347;28;20182;-40
2023/04/11 01:13:07;;;;;;;3.13;1.60;;;13.90;99.90;;;;;;5030822;28;20224;-41
2023/04/11 01:15:33;;;;;;;2.30;1.60;;;13.90;99.90;;;;;;5031164;28;20232;-42
2023/04/11 01:18:00;;;;;;;1.77;1.60;;;13.90;99.90;;;;;;5014757;28;20266;-42
2023/04/11 01:20:28;;;;;;;2.83;1.80;;;13.90;99.90;;;;;;5011079;28;20179;-41
2023/04/11 01:22:56;;;;;;;1.87;1.50;;;13.90;99.90;;;;;;5026363;28;20266;-42
2023/04/11 01:25:23;;;;;;;2.03;1.83;;;13.90;99.90;;;;;;5012486;28;20206;-41
2023/04/11 01:27:51;;;;;;;1.67;1.57;;;13.80;99.90;;;;;;5030819;28;20178;-41
2023/04/11 01:30:17;;;;;;;2.23;1.60;;;13.80;99.90;;;;;;5013671;28;20277;-41
2023/04/11 01:32:42;;;;;;;3.40;1.70;;;13.80;99.90;;;;;;5014144;28;20317;-41
2023/04/11 01:35:11;;;;;;;2.10;1.53;;;13.70;99.90;;;;;;5013248;28;20195;-41
2023/04/11 01:37:37;;;;;;;1.90;1.80;;;13.70;99.90;;;;;;5013974;28;20245;-41
2023/04/11 01:40:04;;;;;;;1.70;1.60;;;13.60;99.90;;;;;;5025908;28;20220;-41
2023/04/11 01:42:45;;;;;;;2.80;1.70;;;13.60;99.90;;;;;;5030264;28;20265;-42
2023/04/11 01:45:11;;;;;;;1.93;1.67;;;13.60;99.90;;;;;;5029213;28;20293;-42
2023/04/11 01:47:37;;;;;;;2.47;1.80;;;13.50;99.90;;;;;;5030270;28;20222;-41
2023/04/11 01:50:05;;;;;;;3.27;1.90;;;13.50;99.90;;;;;;5032011;28;20203;-42
2023/04/11 01:52:31;;;;;;;1.87;1.60;;;13.40;99.90;;;;;;5031204;28;20208;-42
2023/04/11 01:54:57;;;;;;;4.67;1.80;;;13.30;99.90;;;;;;5013736;28;20190;-41
2023/04/11 01:57:23;;;;;;;2.33;1.70;;;13.30;99.90;;;;;;5030308;28;20197;-41
2023/04/11 01:59:48;;;;;;;2.77;1.83;;;13.20;99.90;;;;;;5029907;28;20178;-42
2023/04/11 02:02:14;;;;;;;2.80;2.00;;;13.30;99.90;;;;;;5013766;28;20178;-41
2023/04/11 02:04:40;;;;;;;2.57;1.80;;;13.20;99.90;;;;;;5029613;28;20216;-41
2023/04/11 02:07:06;;;;;;;2.50;1.80;;;13.20;99.90;;;;;;5029744;28;20323;-42
2023/04/11 02:09:31;;;;;;;2.17;1.73;;;13.20;99.90;;;;;;5022580;28;20272;-42
2023/04/11 02:11:58;;;;;;;4.07;1.90;;;13.10;99.90;;;;;;5031055;28;20212;-42
2023/04/11 02:14:24;;;;;;;5.60;1.77;;;13.10;99.90;;;;;;5013485;28;20209;-42
2023/04/11 02:16:55;;;;;;;4.83;1.83;;;13.00;99.90;;;;;;5030157;28;20172;-43
2023/04/11 02:19:22;;;;;;;2.53;2.10;;;12.90;99.90;;;;;;5031483;28;20238;-42
2023/04/11 02:21:48;;;;;;;2.00;1.80;;;12.80;99.90;;;;;;5013243;28;20629;-43
2023/04/11 02:24:14;;;;;;;2.20;1.87;;;12.60;99.90;;;;;;5025750;28;20199;-42
2023/04/11 02:26:41;;;;;;;2.07;1.80;;;12.50;99.90;;;;;;5029843;28;20282;-43
2023/04/11 02:29:07;;;;;;;2.17;1.90;;;12.40;99.90;;;;;;5031356;28;20176;-42
2023/04/11 02:31:33;;;;;;;2.40;1.87;;;12.30;99.90;;;;;;5028907;28;20214;-42
2023/04/11 02:33:59;;;;;;;2.80;2.00;;;12.30;99.90;;;;;;5010059;28;20748;-43
2023/04/11 02:36:27;;;;;;;3.33;2.27;;;12.20;99.90;;;;;;5026115;28;20275;-42
2023/04/11 02:38:53;;;;;;;3.43;2.23;;;12.20;99.90;;;;;;5025243;28;20185;-42
2023/04/11 02:41:19;;;;;;;4.10;2.13;;;12.10;99.90;;;;;;5028843;28;20191;-43
2023/04/11 02:43:45;;;;;;;3.03;1.87;;;12.00;99.90;;;;;;5029037;28;20186;-43
2023/04/11 02:46:11;;;;;;;2.87;1.80;;;11.90;99.90;;;;;;5009334;28;20277;-42
2023/04/11 02:48:37;;;;;;;2.00;1.80;;;11.90;99.90;;;;;;5044776;28;20215;-43
2023/04/11 02:51:04;;;;;;;3.17;2.07;;;11.80;99.90;;;;;;5030688;28;20203;-42
2023/04/11 02:53:29;;;;;;;2.20;1.80;;;11.80;99.90;;;;;;5029174;28;20248;-43
2023/04/11 02:55:55;;;;;;;2.10;1.90;;;11.70;99.90;;;;;;5029338;28;20731;-42
2023/04/11 02:58:24;;;;;;;2.07;1.73;;;11.70;99.90;;;;;;5012946;28;20241;-43
2023/04/11 03:00:52;;;;;;;2.77;1.97;;;11.70;99.90;;;;;;5029284;28;20186;-43
2023/04/11 03:03:18;;;;;;;2.83;1.70;;;11.70;99.90;;;;;;5028950;28;20194;-43
2023/04/11 03:05:46;;;;;;;2.67;1.97;;;11.70;99.90;;;;;;5029624;28;20207;-42
2023/04/11 03:08:14;;;;;;;1.97;1.50;;;11.70;99.90;;;;;;5028989;28;20185;-42
2023/04/11 03:10:47;;;;;;;0.80;0.80;;;11.60;99.90;;;;;;5021693;28;20226;-43
2023/04/11 03:13:14;;;;;;;1.20;0.70;;;11.40;99.90;;;;;;5029088;28;20175;-42
2023/04/11 03:15:40;;;;;;;1.13;0.73;;;11.30;99.90;;;;;;5028948;28;20192;-43
2023/04/11 03:18:08;;;;;;;0.60;0.60;;;11.10;99.90;;;;;;5029155;28;20167;-43
2023/04/11 03:20:38;;;;;;;2.20;0.70;;;11.00;99.90;;;;;;5029111;28;20175;-43
2023/04/11 03:23:04;;;;;;;1.33;0.57;;;10.90;99.90;;;;;;5028877;28;20774;-43
2023/04/11 03:25:30;;;;;;;1.73;0.50;;;10.80;99.90;;;;;;5029023;28;20198;-43
2023/04/11 03:27:57;;;;;;;0.97;0.53;;;10.70;99.90;;;;;;5011546;28;20250;-42
2023/04/11 03:30:23;;;;;;;1.57;0.50;;;10.70;99.90;;;;;;5028836;28;20175;-43
2023/04/11 03:32:49;;;;;;;0.60;0.60;;;10.70;99.90;;;;;;5029022;28;20199;-42
2023/04/11 03:35:17;;;;;;;1.33;0.60;;;10.80;99.90;;;;;;5013088;28;20197;-43
2023/04/11 03:37:45;;;;;;;1.47;0.70;;;10.80;99.90;;;;;;5025866;28;20283;-42
2023/04/11 03:40:12;;;;;;;0.80;0.80;;;10.90;99.90;;;;;;5017782;28;20176;-43
2023/04/11 03:42:42;;;;;;;0.87;0.43;;;10.90;99.90;;;;;;5020750;28;20175;-42
2023/04/11 03:45:13;;;;;;;0.80;0.77;;;10.90;99.90;;;;;;5028994;28;20321;-42
2023/04/11 03:47:39;;;;;;;1.33;0.70;;;10.90;99.90;;;;;;5029037;28;20178;-43
2023/04/11 03:50:07;;;;;;;1.43;0.50;;;10.70;99.90;;;;;;5029201;28;20269;-43
2023/04/11 03:52:38;;;;;;;0.60;0.60;;;10.70;99.90;;;;;;5013104;28;20210;-42
2023/04/11 03:55:11;;;;;;;1.23;0.53;;;10.70;99.90;;;;;;5028870;28;20663;-42
2023/04/11 03:57:37;;;;;;;1.13;0.60;;;10.80;99.90;;;;;;5029014;28;20629;-40
2023/04/11 04:00:06;;;;;;;1.60;0.80;;;10.80;99.90;;;;;;5032705;28;20205;-43
2023/04/11 04:02:40;;;;;;;0.87;0.70;;;10.90;99.90;;;;;;5034517;28;20182;-42
2023/04/11 04:05:08;;;;;;;1.17;1.00;;;10.90;99.90;;;;;;5032822;28;20260;-42
2023/04/11 04:07:36;;;;;;;0.77;0.77;;;10.90;99.90;;;;;;5015923;28;20193;-43
2023/04/11 04:10:12;;;;;;;0.77;0.73;;;10.90;99.90;;;;;;5018186;28;20228;-42
2023/04/11 04:12:40;;;;;;;1.63;0.80;;;11.00;99.90;;;;;;5032683;28;20203;-42
2023/04/11 04:15:14;;;;;;;0.70;0.70;;;11.00;99.90;;;;;;5033088;28;20218;-42
2023/04/11 04:17:42;;;;;;;1.50;1.07;;;10.90;99.90;;;;;;5032806;28;20177;-42
2023/04/11 04:20:13;;;;;;;1.20;1.00;;;10.90;99.90;;;;;;5017000;28;20265;-41
2023/04/11 04:22:42;;;;;;;1.33;1.23;;;10.80;99.90;;;;;;5032690;28;20174;-42
2023/04/11 04:25:11;;;;;;;1.10;0.97;;;10.80;99.90;;;;;;5017070;28;20210;-42
2023/04/11 04:27:42;;;;;;;1.43;1.00;;;10.90;99.90;;;;;;5033081;28;20313;-43
2023/04/11 04:30:14;;;;;;;0.77;0.77;;;10.90;99.90;;;;;;5016665;28;20278;-43
2023/04/11 04:33:03;;;;;;;1.10;0.60;;;10.90;99.90;;;;;;5019502;28;20200;-43
2023/04/11 04:35:33;;;;;;;0.60;0.60;;;10.70;99.90;;;;;;5013658;28;20210;-43
2023/04/11 04:38:05;;;;;;;1.57;0.60;;;10.70;99.90;;;;;;5025932;28;20187;-43
2023/04/11 04:40:42;;;;;;;1.57;0.57;;;10.70;99.90;;;;;;5027724;28;20236;-43
2023/04/11 04:43:17;;;;;;;1.00;0.60;;;10.60;99.90;;;;;;5032009;28;20178;-42
2023/04/11 04:46:06;;;;;;;1.67;0.70;;;10.60;99.90;;;;;;5028094;28;20212;-43
2023/04/11 04:48:41;;;;;;;1.43;0.50;;;10.50;99.90;;;;;;4997915;28;20178;-43
2023/04/11 04:51:07;;;;;;;1.43;0.83;;;10.40;99.90;;;;;;5031388;28;20203;-43
2023/04/11 04:53:37;;;;;;;1.00;0.60;;;10.20;99.90;;;;;;5031176;28;20178;-43
2023/04/11 04:56:05;;;;;;;1.50;0.73;;;10.10;99.90;;;;;;5032440;28;20324;-43
2023/04/11 04:58:34;;;;;;;2.17;0.80;;;10.00;99.90;;;;;;5032141;28;20174;-43
2023/04/11 05:01:03;;;;;;;0.67;0.60;;;9.80;99.90;;;;;;5032166;28;20209;-43
2023/04/11 05:03:34;;;;;;;0.50;0.50;;;9.80;99.90;;;;;;5032263;28;20209;-42
2023/04/11 05:06:01;;;;;;;1.40;0.60;;;9.80;99.90;;;;;;5031835;28;20194;-43
2023/04/11 05:08:27;;;;;;;0.80;0.50;;;9.80;99.90;;;;;;5015361;28;20216;-41
2023/04/11 05:10:57;;;;;;;0.70;0.60;;;9.90;99.90;;;;;;5014989;28;20202;-42
2023/04/11 05:13:24;;;;;;;0.70;0.70;;;9.90;99.90;;;;;;5015498;28;20206;-42
2023/04/11 05:15:50;;;;;;;0.50;0.50;;;10.00;99.90;;;;;;5031853;28;20241;-42
2023/04/11 05:18:17;;;;;;;0.60;0.50;;;10.00;99.90;;;;;;5031918;28;20187;-42
2023/04/11 05:20:43;;;;;;;1.13;0.60;;;10.00;99.90;;;;;;5031924;28;20174;-42
2023/04/11 05:23:13;;;;;;;0.40;0.40;;;10.00;99.90;;;;;;5031776;28;20202;-42
2023/04/11 05:25:40;;;;;;;1.10;0.50;;;10.00;99.90;;;;;;5010023;28;20199;-43
2023/04/11 05:28:09;;;;;;;0.50;0.50;;;9.90;99.90;;;;;;5015905;28;20170;-42
2023/04/11 05:30:34;;;;;;;0.50;0.50;;;9.90;99.90;;;;;;5022510;28;20586;-42
2023/04/11 05:33:01;;;;;;;0.50;0.50;;;9.80;99.90;;;;;;5021586;28;20217;-42
2023/04/11 05:35:27;;;;;;;0.60;0.60;;;9.70;99.90;;;;;;5032358;28;20273;-42
2023/04/11 05:37:54;;;;;;;0.63;0.50;;;9.70;99.90;;;;;;5030693;28;20178;-43
2023/04/11 05:40:20;;;;;;;0.70;0.63;;;9.60;99.90;;;;;;5022257;28;20256;-42
2023/04/11 05:42:48;;;;;;;0.80;0.50;;;9.60;99.90;;;;;;5029426;28;20189;-43
2023/04/11 05:45:14;;;;;;;0.83;0.50;;;9.50;99.90;;;;;;5030762;28;20198;-43
2023/04/11 05:47:40;;;;;;;1.43;0.60;;;9.50;99.90;;;;;;5013824;28;20760;-39
2023/04/11 05:50:07;;;;;;;1.13;0.60;;;9.60;99.90;;;;;;5029563;28;20182;-42
2023/04/11 05:52:33;;;;;;;0.40;0.40;;;9.60;99.90;;;;;;5013827;28;20209;-42
2023/04/11 05:55:00;;;;;;;1.63;0.60;;;9.50;99.90;;;;;;5031699;28;20191;-43
2023/04/11 05:57:25;;;;;;;1.23;0.70;;;9.60;99.90;;;;;;5030869;28;20178;-42
2023/04/11 05:59:51;;;;;;;1.90;0.87;;;9.60;99.90;;;;;;5027265;28;20185;-39
2023/04/11 06:02:17;;;;;;;1.40;0.63;;;9.50;99.90;;;;;;5030190;28;20213;-39
2023/04/11 06:04:43;;;;;;;0.80;0.80;;;9.60;99.90;;;;;;5013389;28;20245;-41
2023/04/11 06:07:09;;;;;;;3.30;0.90;;;9.50;99.90;;;;;;5030647;28;20194;-39
2023/04/11 06:09:35;;;;;;;1.27;0.80;;;9.50;99.90;;;;;;5023215;28;20194;-37
2023/04/11 06:12:02;;;;;;;1.13;1.00;;;9.50;99.90;;;;;;5030113;28;20206;-40
2023/04/11 06:14:28;;;;;;;1.23;0.80;;;9.50;99.90;;;;;;5030092;28;20195;-38
2023/04/11 06:16:53;;;;;;;0.73;0.60;;;9.40;99.90;;;;;;5031676;28;20246;-40
2023/04/11 06:19:21;;;;;;;1.53;0.70;;;9.30;99.90;;;;;;5029973;28;20213;-40
2023/04/11 06:21:47;;;;;;;2.50;0.77;;;9.20;99.90;;;;;;5029576;28;20269;-39
2023/04/11 06:24:16;;;;;;;1.30;0.60;;;9.10;99.90;;;;;;5027004;28;20289;-39
2023/04/11 06:26:43;;;;;;;1.77;0.90;;;9.10;99.90;;;;;;5022069;28;20254;-43
2023/04/11 06:29:09;;;;;;;0.97;0.70;;;9.00;99.90;;;;;;5029850;28;20179;-42
2023/04/11 06:31:35;;;;;;;3.93;1.03;;;9.00;99.90;;;;;;5031261;28;20655;-42
2023/04/11 06:34:01;;;;;;;1.43;0.73;;;9.00;99.90;;;;;;5029420;28;20226;-42
2023/04/11 06:36:28;;;;;;;1.53;1.10;;;9.00;99.90;;;;;;5031343;28;20212;-42
2023/04/11 06:38:54;;;;;;;5.07;2.77;;;9.00;99.90;;;;;;5026372;28;20652;-40
2023/04/11 06:41:20;;;;;;;4.97;2.60;;;9.00;99.90;;;;;;5010070;28;20187;-42
2023/04/11 06:43:46;;;;;;;3.37;1.73;;;9.00;99.90;;;;;;5011192;28;20182;-39
2023/04/11 06:46:11;;;;;;;3.33;1.43;;;9.00;99.90;;;;;;4993897;28;20183;-41
2023/04/11 06:48:37;;;;;;;3.87;1.40;;;9.00;99.90;;;;;;5015162;28;20185;-42
2023/04/11 06:51:03;;;;;;;2.67;1.70;;;9.00;99.90;;;;;;5017663;28;20213;-41
2023/04/11 06:53:29;;;;;;;4.63;2.00;;;9.00;99.90;;;;;;5008956;28;20193;-42
2023/04/11 06:55:55;;;;;;;2.80;1.57;;;9.00;99.90;;;;;;5026450;28;20191;-42
2023/04/11 06:58:21;;;;;;;2.83;1.70;;;9.10;99.90;;;;;;5020695;28;20182;-42
2023/04/11 07:00:47;;;;;;;6.03;2.10;;;9.10;99.90;;;;;;5019880;28;20175;-42
2023/04/11 07:03:12;;;;;;;5.20;2.37;;;9.10;99.90;;;;;;5018148;28;20203;-42
2023/04/11 07:05:38;;;;;;;2.50;1.23;;;9.10;99.90;;;;;;5022144;28;20209;-42
2023/04/11 07:08:04;;;;;;;3.17;1.47;;;9.20;99.90;;;;;;5029532;28;20179;-42
2023/04/11 07:10:30;;;;;;;2.03;1.27;;;9.20;99.90;;;;;;5023374;28;20177;-42
2023/04/11 07:12:56;;;;;;;2.23;1.43;;;9.20;99.90;;;;;;5018729;28;20214;-40
2023/04/11 07:15:22;;;;;;;3.50;1.27;;;9.20;99.90;;;;;;5019398;28;20210;-42
2023/04/11 07:17:48;;;;;;;2.03;0.80;;;9.10;99.90;;;;;;5021498;28;20210;-41
2023/04/11 07:20:14;;;;;;;3.33;1.13;;;9.10;99.90;;;;;;5019963;28;20225;-42
2023/04/11 07:22:42;;;;;;;1.70;1.30;;;9.10;99.90;;;;;;5012430;28;20183;-41
2023/04/11 07:25:09;;;;;;;3.20;1.37;;;9.10;99.90;;;;;;5009639;28;20214;-42
2023/04/11 07:27:39;;;;;;;3.77;1.20;;;9.00;99.90;;;;;;5012321;28;20659;-41
2023/04/11 07:30:05;;;;;;;3.00;1.10;;;9.00;99.90;;;;;;5009560;28;20197;-42
2023/04/11 07:32:31;;;;;;;3.43;1.00;;;9.00;99.90;;;;;;5007971;28;20214;-41
2023/04/11 07:34:57;;;;;;;3.00;0.93;;;9.00;99.90;;;;;;5011638;28;20195;-40
2023/04/11 07:37:23;;;;;;;1.67;1.00;;;9.10;99.90;;;;;;5022321;28;20194;-40
2023/04/11 07:39:48;;;;;;;4.37;1.43;;;9.20;99.90;;;;;;5024595;28;20203;-42
2023/04/11 07:42:14;;;;;;;1.90;0.87;;;9.20;99.90;;;;;;5033072;28;20190;-42
2023/04/11 07:44:40;;;;;;;2.77;1.30;;;9.30;99.90;;;;;;5032953;28;20199;-37
2023/04/11 07:47:06;;;;;;;3.37;0.90;;;9.30;99.90;;;;;;5034451;28;20175;-40
2023/04/11 07:49:31;;;;;;;7.73;1.77;;;9.20;99.90;;;;;;5032764;28;20183;-41
2023/04/11 07:51:57;;;;;;;2.80;1.20;;;9.30;99.90;;;;;;5032599;28;20206;-39
2023/04/11 07:54:24;;;;;;;2.37;0.90;;;9.30;99.90;;;;;;5034380;28;20206;-39
2023/04/11 07:56:50;;;;;;;3.47;0.90;;;9.30;99.90;;;;;;5016318;28;20182;-39
2023/04/11 07:59:16;;;;;;;2.67;1.07;;;9.30;99.90;;;;;;5032820;28;20228;-39
2023/04/11 08:01:41;;;;;;;3.50;1.30;;;9.40;99.90;;;;;;5031969;28;20179;-41
2023/04/11 08:04:07;;;;;;;4.93;1.43;;;9.40;99.90;;;;;;5015603;28;20303;-38
2023/04/11 08:06:33;;;;;;;6.30;1.37;;;9.40;99.90;;;;;;5013777;28;20198;-41
2023/04/11 08:08:59;;;;;;;6.17;1.20;;;9.50;99.90;;;;;;5025251;28;20180;-41
2023/04/11 08:11:25;;;;;;;4.57;1.10;;;9.60;99.90;;;;;;5026198;28;20207;-42
2023/04/11 08:13:51;;;;;;;3.17;1.20;;;9.60;99.90;;;;;;5026027;28;20201;-40
2023/04/11 08:16:17;;;;;;;4.40;1.30;;;9.60;99.90;;;;;;5018495;28;20269;-41
2023/04/11 08:18:44;;;;;;;6.23;1.80;;;9.50;99.90;;;;;;5019139;28;20294;-41
2023/04/11 08:21:10;;;;;;;6.10;3.20;;;9.50;99.90;;;;;;5015284;28;20190;-42
2023/04/11 08:23:38;;;;;;;5.60;4.10;;;9.50;99.90;;;;;;5015776;28;20175;-42
2023/04/11 08:26:05;;;;;;;4.67;1.30;;;9.50;99.90;;;;;;5015914;28;20179;-40
2023/04/11 08:28:33;;;;;;;6.03;1.20;;;9.50;99.90;;;;;;5014904;28;20175;-38
2023/04/11 08:31:01;;;;;;;4.93;1.43;;;9.40;99.90;;;;;;5026876;28;20174;-39
2023/04/11 08:33:27;;;;;;;4.27;1.20;;;9.50;99.90;;;;;;5027176;28;20174;-37
2023/04/11 08:35:53;;;;;;;2.13;1.07;;;9.50;99.90;;;;;;5020013;28;20294;-40
2023/04/11 08:38:20;;;;;;;3.80;1.53;;;9.70;99.90;;;;;;5021390;28;20266;-40
2023/04/11 08:40:47;;;;;;;4.80;1.30;;;9.80;99.90;;;;;;5020160;28;20222;-37
2023/04/11 08:43:13;;;;;;;5.73;1.70;;;9.90;99.90;;;;;;5019347;28;20179;-39
2023/04/11 08:45:40;;;;;;;3.03;1.30;;;10.10;99.90;;;;;;5020455;28;20202;-40
2023/04/11 08:48:07;;;;;;;2.07;1.10;;;10.20;99.90;;;;;;5022593;28;20172;-41
2023/04/11 08:50:35;;;;;;;3.33;1.50;;;10.30;99.90;;;;;;5021897;28;20185;-42
2023/04/11 08:53:03;;;;;;;5.37;1.77;;;10.20;99.90;;;;;;5019161;28;20671;-41
2023/04/11 08:55:30;;;;;;;5.50;1.37;;;10.30;99.90;;;;;;5003956;28;20206;-42
2023/04/11 08:57:58;;;;;;;6.63;2.20;;;10.40;99.90;;;;;;5026671;28;20167;-41
2023/04/11 09:00:27;;;;;;;5.17;2.00;;;10.50;99.90;;;;;;5017237;28;20185;-42
2023/04/11 09:03:07;;;;;;;4.87;1.70;;;10.60;99.90;;;;;;5021665;28;20650;-42
2023/04/11 09:08:11;;;;;;;4.00;1.60;;;10.80;99.90;;;;;;5064424;28;20216;-40
2023/04/11 09:10:40;;;;;;;5.50;1.73;;;10.90;99.90;;;;;;5085097;28;20184;-37
2023/04/11 09:13:26;;;;;;;4.47;1.50;;;10.90;99.90;;;;;;5068760;28;20202;-38
2023/04/11 09:16:10;;;;;;;3.77;1.60;;;10.90;99.90;;;;;;5081975;28;20345;-37
2023/04/11 09:18:38;;;;;;;2.17;1.20;;;11.00;99.90;;;;;;5060135;28;20182;-36
2023/04/11 09:21:10;;;;;;;5.97;1.40;;;11.10;99.90;;;;;;5054788;28;20178;-41
2023/04/11 09:23:37;;;;;;;4.43;1.40;;;11.30;99.90;;;;;;5066286;28;20182;-38
2023/04/11 09:26:08;;;;;;;2.97;1.40;;;11.50;99.90;;;;;;5061076;28;20208;-39
2023/04/11 09:28:51;;;;;;;6.03;1.77;;;11.60;99.90;;;;;;5060052;28;20175;-41
2023/04/11 09:31:17;;;;;;;4.30;1.60;;;11.70;99.90;;;;;;5065374;28;20213;-38
2023/04/11 09:33:54;;;;;;;5.37;1.80;;;11.70;99.90;;;;;;5062776;28;20174;-36
2023/04/11 09:36:22;;;;;;;2.20;1.47;;;11.80;99.90;;;;;;5063471;28;20197;-37
2023/04/11 09:38:47;;;;;;;3.67;1.60;;;11.80;99.90;;;;;;5067239;28;20190;-39
2023/04/11 09:41:14;;;;;;;4.53;1.50;;;11.60;99.90;;;;;;5062197;28;20175;-38
2023/04/11 09:43:51;;;;;;;5.40;1.63;;;11.60;99.90;;;;;;5059215;28;20174;-38
2023/04/11 09:46:19;;;;;;;4.27;1.70;;;11.50;99.90;;;;;;5061458;28;20220;-39
2023/04/11 09:48:50;;;;;;;8.40;2.00;;;11.30;99.90;;;;;;5063073;28;20174;-42
2023/04/11 09:51:16;;;;;;;3.67;1.50;;;11.10;99.90;;;;;;5063317;28;20244;-37
2023/04/11 09:53:42;;;;;;;5.87;1.60;;;11.00;99.90;;;;;;5059411;28;20192;-39
2023/04/11 09:56:09;;;;;;;6.10;1.60;;;10.90;99.90;;;;;;5063812;28;20206;-36
2023/04/11 09:58:36;;;;;;;6.13;1.43;;;10.70;99.90;;;;;;5061287;28;20170;-36
2023/04/11 10:01:06;;;;;;;13.50;8.63;;;10.70;99.90;;;;;;5058949;28;20622;-37
2023/04/11 10:03:34;;;;;;;4.67;1.87;;;10.70;99.90;;;;;;5070080;28;20176;-36
2023/04/11 10:06:03;;;;;;;3.33;1.37;;;10.50;99.90;;;;;;5060239;28;20204;-37
2023/04/11 10:08:34;;;;;;;2.93;1.30;;;10.20;99.90;;;;;;5062692;28;20242;-37
2023/04/11 10:11:02;;;;;;;2.03;1.30;;;10.20;99.90;;;;;;5069535;28;20269;-37
2023/04/11 10:13:34;;;;;;;3.17;1.60;;;10.40;99.90;;;;;;5069839;28;20181;-37
2023/04/11 10:16:09;;;;;;;4.67;1.23;;;10.60;99.90;;;;;;5071527;28;20191;-36
2023/04/11 10:19:07;;;;;;;3.77;1.40;;;10.80;99.90;;;;;;5069945;28;20275;-36
2023/04/11 10:21:33;;;;;;;5.83;1.50;;;11.20;99.90;;;;;;5037405;28;20200;-41
2023/04/11 10:24:20;;;;;;;2.57;1.13;;;11.60;99.90;;;;;;5069867;28;20174;-41
2023/04/11 10:26:47;;;;;;;5.30;1.57;;;11.90;99.90;;;;;;5081633;28;20186;-40
2023/04/11 10:29:39;;;;;;;1.93;1.20;;;11.90;99.90;;;;;;5060383;28;20185;-41
2023/04/11 10:32:11;;;;;;;2.57;1.13;;;12.10;99.90;;;;;;5062515;28;20203;-43
2023/04/11 10:34:38;;;;;;;3.47;1.40;;;12.30;99.90;;;;;;5061656;28;20198;-44
2023/04/11 10:37:08;;;;;;;2.93;1.20;;;12.20;99.90;;;;;;5067952;28;20178;-42
2023/04/11 10:39:49;;;;;;;2.57;1.00;;;12.30;99.90;;;;;;5063292;28;20213;-42
2023/04/11 10:42:34;;;;;;;3.33;1.33;;;12.40;99.90;;;;;;5059133;28;20185;-44
2023/04/11 10:45:14;;;;;;;3.57;1.40;;;12.40;99.90;;;;;;5090642;28;20231;-44
2023/04/11 10:47:41;;;;;;;2.37;1.23;;;12.30;99.90;;;;;;5056078;28;20186;-42
2023/04/11 10:50:36;;;;;;;4.17;1.80;;;12.30;99.90;;;;;;5062524;28;20181;-38
2023/04/11 10:53:05;;;;;;;2.20;1.40;;;12.20;99.90;;;;;;5057576;28;20649;-42
2023/04/11 10:55:49;;;;;;;5.33;1.80;;;12.20;99.90;;;;;;5060842;28;20287;-40
2023/04/11 10:58:18;;;;;;;2.93;1.37;;;12.10;99.90;;;;;;5063455;28;20174;-39
2023/04/11 11:01:13;;;;;;;3.70;1.47;;;12.10;99.90;;;;;;5056851;28;20173;-40
2023/04/11 11:03:39;;;;;;;3.93;1.60;;;12.10;99.90;;;;;;5049906;28;20241;-39
2023/04/11 11:06:07;;;;;;;3.03;1.10;;;12.20;99.90;;;;;;5058197;28;20214;-44
2023/04/11 11:08:40;;;;;;;3.27;1.10;;;12.30;99.90;;;;;;5068671;28;20187;-40
2023/04/11 11:11:10;;;;;;;2.97;1.17;;;12.40;99.90;;;;;;5058833;28;20217;-40
2023/04/11 11:13:44;;;;;;;1.77;1.00;;;12.50;99.90;;;;;;5066313;28;20184;-42
2023/04/11 11:16:15;;;;;;;5.20;1.10;;;12.70;99.90;;;;;;5064596;28;20188;-41
2023/04/11 11:18:44;;;;;;;2.70;1.47;;;12.90;99.90;;;;;;5061035;28;20282;-40
2023/04/11 11:21:10;;;;;;;3.77;1.30;;;13.10;99.90;;;;;;5065592;28;20229;-40
2023/04/11 11:23:36;;;;;;;7.07;1.30;;;13.10;99.90;;;;;;5064664;28;20177;-40
2023/04/11 11:26:02;;;;;;;3.63;1.20;;;13.00;99.90;;;;;;5065743;28;20192;-40
2023/04/11 11:28:28;;;;;;;3.67;1.33;;;13.00;99.90;;;;;;5067007;28;20191;-44
2023/04/11 11:30:56;;;;;;;3.87;1.40;;;13.00;99.90;;;;;;5064316;28;20180;-45
2023/04/11 11:33:23;;;;;;;3.87;1.43;;;13.00;99.90;;;;;;5047480;28;20226;-39
2023/04/11 11:36:01;;;;;;;4.13;1.40;;;13.00;99.90;;;;;;5063057;28;20195;-39
2023/04/11 11:38:29;;;;;;;4.37;1.37;;;12.90;99.90;;;;;;5089913;28;20255;-40
2023/04/11 11:40:56;;;;;;;2.43;1.20;;;13.00;99.90;;;;;;5063441;28;20732;-39
2023/04/11 11:43:22;;;;;;;2.63;1.27;;;13.00;99.90;;;;;;5079396;28;20184;-43
2023/04/11 11:46:07;;;;;;;3.50;1.20;;;12.90;99.90;;;;;;5063175;28;20290;-45
2023/04/11 11:48:33;;;;;;;3.10;1.33;;;13.00;99.90;;;;;;5063359;28;20188;-41
2023/04/11 11:50:59;;;;;;;4.00;1.47;;;13.00;99.90;;;;;;5068154;28;20181;-42
2023/04/11 11:53:26;;;;;;;4.17;1.50;;;13.00;99.90;;;;;;5065923;28;20177;-43
2023/04/11 11:55:53;;;;;;;2.93;1.33;;;13.00;99.90;;;;;;5066389;28;20205;-41
2023/04/11 11:58:19;;;;;;;7.67;2.90;;;13.00;99.90;;;;;;5063047;28;20178;-40
2023/04/11 12:00:49;;;;;;;5.20;2.10;;;13.20;99.90;;;;;;5062638;28;20172;-39
2023/04/11 12:03:19;;;;;;;5.23;2.03;;;13.20;99.90;;;;;;5063792;28;20176;-39
2023/04/11 12:05:46;;;;;;;6.13;1.73;;;13.30;99.90;;;;;;5052901;28;20204;-39
2023/04/11 12:08:12;;;;;;;5.57;1.53;;;13.30;99.90;;;;;;5063337;28;20186;-42
2023/04/11 12:10:40;;;;;;;3.20;1.83;;;13.20;99.90;;;;;;5065198;28;20600;-40
2023/04/11 12:13:19;;;;;;;23.37;19.70;;;13.20;99.90;;;;;;5072369;28;20314;-39
2023/04/11 12:15:51;;;;;;;3.13;2.50;;;13.40;99.90;;;;;;5072510;28;20200;-42
2023/04/11 12:18:20;;;;;;;4.57;1.97;;;13.60;99.90;;;;;;5089367;28;20234;-39
2023/04/11 12:20:46;;;;;;;3.53;1.50;;;13.70;99.90;;;;;;5071426;28;20226;-40
2023/04/11 12:23:12;;;;;;;2.77;1.27;;;13.70;99.90;;;;;;5072154;28;20173;-40
2023/04/11 12:25:37;;;;;;;2.37;1.23;;;13.70;99.90;;;;;;5063744;28;20284;-40
2023/04/11 12:28:03;;;;;;;3.60;1.40;;;13.60;99.90;;;;;;5053363;28;20244;-39
2023/04/11 12:30:29;;;;;;;4.23;1.77;;;13.50;99.90;;;;;;5052070;28;20532;-39
2023/04/11 12:32:55;;;;;;;4.43;1.33;;;13.30;99.90;;;;;;5052867;28;20212;-39
2023/04/11 12:35:21;;;;;;;3.10;1.27;;;13.30;99.90;;;;;;5052681;28;20293;-38
2023/04/11 12:37:46;;;;;;;4.57;1.50;;;13.20;99.90;;;;;;5060811;28;20176;-39
2023/04/11 12:40:14;;;;;;;4.10;1.57;;;13.10;99.90;;;;;;5063527;28;20232;-39
2023/04/11 12:42:42;;;;;;;4.07;1.20;;;13.20;99.90;;;;;;5073246;28;20180;-39
2023/04/11 12:45:10;;;;;;;2.83;1.23;;;13.30;99.90;;;;;;5055317;28;20219;-40
2023/04/11 12:47:36;;;;;;;3.77;1.20;;;13.40;99.90;;;;;;5071637;28;20192;-39
2023/04/11 12:50:02;;;;;;;4.33;1.60;;;13.50;99.90;;;;;;5073256;28;20188;-38
2023/04/11 12:52:29;;;;;;;3.10;1.33;;;13.80;99.90;;;;;;5070986;28;20267;-39
2023/04/11 12:54:55;;;;;;;3.23;1.10;;;14.10;99.90;;;;;;5055205;28;20205;-39
2023/04/11 12:57:30;;;;;;;3.13;1.40;;;14.30;99.90;;;;;;5068554;28;20189;-38
2023/04/11 12:59:56;;;;;;;3.37;1.10;;;14.30;99.90;;;;;;5070704;28;20263;-43